createdAt,value
2023-04-29T00:02:04.958Z,100.00
2023-04-29T00:04:31.609Z,100.00
2023-04-29T00:06:58.124Z,100.00
2023-04-29T00:09:24.810Z,100.00
2023-04-29T00:11:51.123Z,100.00
2023-04-29T00:14:17.687Z,100.00
2023-04-29T00:16:44.549Z,100.00
2023-04-29T00:19:10.884Z,100.00
2023-04-29T00:21:37.322Z,100.00
2023-04-29T00:24:03.999Z,100.00
2023-04-29T00:26:30.331Z,100.00
2023-04-29T00:28:56.664Z,100.00
2023-04-29T00:31:23.080Z,100.00
2023-04-29T00:33:49.398Z,100.00
2023-04-29T00:36:15.813Z,100.00
2023-04-29T00:38:42.172Z,100.00
2023-04-29T00:41:09.093Z,100.00
2023-04-29T00:43:35.485Z,100.00
2023-04-29T00:46:01.837Z,100.00
2023-04-29T00:48:28.440Z,100.00
2023-04-29T00:50:54.739Z,100.00
2023-04-29T00:53:21.271Z,100.00
2023-04-29T00:55:48.265Z,100.00
2023-04-29T00:58:14.636Z,100.00
2023-04-29T01:00:41.407Z,100.00
2023-04-29T01:03:08.953Z,100.00
2023-04-29T01:05:35.495Z,100.00
2023-04-29T01:08:18.806Z,100.00
2023-04-29T01:10:53.240Z,100.00
2023-04-29T01:13:31.600Z,100.00
2023-04-29T01:16:03.352Z,100.00
2023-04-29T01:18:54.291Z,100.00
2023-04-29T01:21:20.861Z,100.00
2023-04-29T01:23:47.212Z,100.00
2023-04-29T01:26:13.614Z,100.00
2023-04-29T01:28:45.146Z,100.00
2023-04-29T01:31:27.988Z,100.00
2023-04-29T01:34:17.313Z,100.00
2023-04-29T01:37:15.407Z,100.00
2023-04-29T01:39:50.341Z,100.00
2023-04-29T01:42:30.001Z,100.00
2023-04-29T01:45:00.755Z,100.00
2023-04-29T01:47:27.199Z,100.00
2023-04-29T01:49:53.806Z,100.00
2023-04-29T01:52:20.387Z,100.00
2023-04-29T01:54:47.265Z,100.00
2023-04-29T01:57:13.845Z,100.00
2023-04-29T01:59:40.268Z,100.00
2023-04-29T02:02:06.674Z,100.00
2023-04-29T02:04:33.069Z,100.00
2023-04-29T02:06:59.772Z,100.00
2023-04-29T02:09:26.066Z,100.00
2023-04-29T02:11:52.829Z,100.00
2023-04-29T02:14:19.211Z,100.00
2023-04-29T02:16:45.741Z,100.00
2023-04-29T02:19:12.805Z,100.00
2023-04-29T02:21:39.330Z,100.00
2023-04-29T02:24:06.381Z,100.00
2023-04-29T02:26:32.812Z,100.00
2023-04-29T02:28:59.356Z,100.00
2023-04-29T02:31:26.394Z,100.00
2023-04-29T02:33:52.823Z,100.00
2023-04-29T02:36:19.131Z,100.00
2023-04-29T02:38:45.637Z,100.00
2023-04-29T02:41:17.007Z,100.00
2023-04-29T02:43:43.811Z,100.00
2023-04-29T02:46:10.348Z,100.00
2023-04-29T02:48:37.126Z,100.00
2023-04-29T02:51:03.702Z,100.00
2023-04-29T02:53:30.093Z,100.00
2023-04-29T02:55:56.476Z,100.00
2023-04-29T02:58:22.861Z,100.00
2023-04-29T03:00:49.379Z,100.00
2023-04-29T03:03:15.899Z,99.36
2023-04-29T03:05:42.303Z,98.94
2023-04-29T03:08:08.901Z,97.28
2023-04-29T03:10:35.324Z,96.85
2023-04-29T03:13:01.832Z,96.70
2023-04-29T03:15:28.628Z,95.75
2023-04-29T03:17:55.066Z,95.60
2023-04-29T03:20:21.595Z,96.49
2023-04-29T03:22:48.033Z,97.37
2023-04-29T03:25:14.411Z,97.55
2023-04-29T03:27:40.820Z,97.80
2023-04-29T03:30:07.798Z,97.96
2023-04-29T03:32:34.210Z,98.24
2023-04-29T03:35:00.749Z,98.50
2023-04-29T03:37:27.412Z,99.18
2023-04-29T03:39:54.069Z,99.90
2023-04-29T03:42:20.952Z,99.75
2023-04-29T03:44:47.340Z,98.95
2023-04-29T03:47:13.647Z,99.82
2023-04-29T03:49:40.051Z,99.87
2023-04-29T03:52:06.436Z,100.00
2023-04-29T03:54:32.785Z,100.00
2023-04-29T03:56:59.159Z,100.00
2023-04-29T03:59:25.740Z,100.00
2023-04-29T04:01:52.339Z,100.00
2023-04-29T04:04:18.794Z,100.00
2023-04-29T04:06:45.404Z,100.00
2023-04-29T04:09:11.995Z,100.00
2023-04-29T04:11:38.307Z,100.00
2023-04-29T04:14:04.707Z,100.00
2023-04-29T04:16:31.029Z,100.00
2023-04-29T04:18:57.449Z,100.00
2023-04-29T04:21:24.216Z,100.00
2023-04-29T04:23:50.944Z,100.00
2023-04-29T04:26:17.288Z,100.00
2023-04-29T04:28:43.596Z,100.00
2023-04-29T04:31:10.321Z,100.00
2023-04-29T04:33:36.772Z,100.00
2023-04-29T04:36:03.347Z,100.00
2023-04-29T04:38:29.644Z,100.00
2023-04-29T04:40:56.168Z,100.00
2023-04-29T04:43:22.523Z,100.00
2023-04-29T04:45:48.962Z,100.00
2023-04-29T04:48:15.296Z,100.00
2023-04-29T04:50:41.688Z,100.00
2023-04-29T04:53:07.986Z,100.00
2023-04-29T04:55:34.410Z,100.00
2023-04-29T04:58:00.869Z,100.00
2023-04-29T05:00:27.182Z,100.00
2023-04-29T05:02:53.742Z,100.00
2023-04-29T05:05:20.366Z,100.00
2023-04-29T05:07:46.789Z,100.00
2023-04-29T05:10:13.116Z,100.00
2023-04-29T05:12:39.633Z,100.00
2023-04-29T05:15:06.444Z,100.00
2023-04-29T05:17:32.897Z,100.00
2023-04-29T05:19:59.214Z,100.00
2023-04-29T05:22:25.547Z,100.00
2023-04-29T05:24:51.947Z,100.00
2023-04-29T05:27:18.335Z,100.00
2023-04-29T05:29:44.640Z,100.00
2023-04-29T05:32:10.985Z,100.00
2023-04-29T05:34:37.370Z,100.00
2023-04-29T05:37:03.779Z,100.00
2023-04-29T05:39:30.079Z,100.00
2023-04-29T05:41:56.395Z,99.54
2023-04-29T05:44:22.946Z,98.97
2023-04-29T05:46:49.303Z,98.88
2023-04-29T05:49:15.735Z,98.11
2023-04-29T05:51:42.040Z,98.60
2023-04-29T05:54:08.488Z,95.87
2023-04-29T05:56:34.921Z,95.43
2023-04-29T05:59:01.634Z,95.80
2023-04-29T06:01:28.307Z,95.30
2023-04-29T06:03:55.101Z,95.64
2023-04-29T06:06:21.797Z,94.71
2023-04-29T06:08:48.258Z,94.07
2023-04-29T06:11:14.801Z,93.44
2023-04-29T06:13:41.317Z,93.82
2023-04-29T06:16:08.032Z,92.74
2023-04-29T06:18:34.646Z,91.57
2023-04-29T06:21:00.991Z,92.42
2023-04-29T06:23:27.752Z,93.53
2023-04-29T06:25:54.126Z,92.60
2023-04-29T06:28:20.545Z,92.47
2023-04-29T06:30:46.974Z,93.04
2023-04-29T06:33:13.388Z,93.90
2023-04-29T06:35:40.363Z,92.43
2023-04-29T06:38:06.718Z,93.45
2023-04-29T06:40:33.075Z,93.94
2023-04-29T06:42:59.394Z,92.92
2023-04-29T06:45:25.802Z,91.46
2023-04-29T06:47:52.228Z,90.84
2023-04-29T06:50:18.760Z,91.64
2023-04-29T06:52:45.140Z,92.08
2023-04-29T06:55:11.554Z,92.26
2023-04-29T06:57:38.327Z,91.48
2023-04-29T07:00:05.722Z,91.44
2023-04-29T07:02:32.311Z,91.36
2023-04-29T07:04:58.742Z,90.97
2023-04-29T07:07:25.267Z,90.51
2023-04-29T07:09:51.887Z,90.67
2023-04-29T07:12:18.479Z,91.54
2023-04-29T07:14:44.898Z,91.77
2023-04-29T07:17:13.472Z,92.19
2023-04-29T07:19:40.583Z,91.55
2023-04-29T07:22:07.078Z,92.35
2023-04-29T07:24:33.430Z,93.06
2023-04-29T07:26:59.929Z,93.18
2023-04-29T07:29:26.254Z,91.99
2023-04-29T07:31:52.630Z,92.04
2023-04-29T07:34:19.104Z,92.46
2023-04-29T07:36:45.448Z,89.89
2023-04-29T07:39:11.824Z,90.59
2023-04-29T07:41:38.140Z,91.19
2023-04-29T07:44:04.686Z,90.24
2023-04-29T07:46:31.128Z,90.62
2023-04-29T07:48:57.534Z,90.33
2023-04-29T07:51:23.901Z,88.74
2023-04-29T07:53:50.408Z,86.64
2023-04-29T07:56:16.718Z,88.04
2023-04-29T07:58:43.121Z,89.13
2023-04-29T08:01:10.391Z,89.61
2023-04-29T08:03:39.865Z,90.79
2023-04-29T08:06:07.647Z,92.07
2023-04-29T08:08:34.165Z,91.88
2023-04-29T08:11:00.585Z,92.92
2023-04-29T08:13:26.957Z,92.48
2023-04-29T08:15:53.405Z,92.32
2023-04-29T08:18:20.108Z,92.12
2023-04-29T08:20:47.816Z,91.77
2023-04-29T08:23:14.139Z,92.68
2023-04-29T08:25:43.703Z,92.96
2023-04-29T08:28:10.866Z,93.18
2023-04-29T08:30:39.142Z,93.88
2023-04-29T08:33:05.709Z,94.85
2023-04-29T08:35:32.161Z,94.38
2023-04-29T08:37:58.476Z,94.79
2023-04-29T08:40:24.916Z,96.16
2023-04-29T08:42:53.307Z,95.95
2023-04-29T08:45:22.947Z,95.73
2023-04-29T08:47:50.438Z,94.80
2023-04-29T08:50:17.213Z,92.62
2023-04-29T08:52:43.610Z,91.36
2023-04-29T08:55:10.027Z,92.35
2023-04-29T08:57:36.940Z,90.20
2023-04-29T09:00:04.171Z,90.47
2023-04-29T09:02:30.667Z,88.24
2023-04-29T09:05:10.275Z,88.33
2023-04-29T09:07:40.846Z,86.19
2023-04-29T09:10:09.702Z,86.52
2023-04-29T09:12:36.193Z,86.31
2023-04-29T09:15:03.678Z,85.56
2023-04-29T09:17:47.149Z,84.58
2023-04-29T09:20:22.582Z,85.38
2023-04-29T09:22:50.115Z,84.11
2023-04-29T09:25:17.038Z,82.05
2023-04-29T09:27:43.902Z,83.07
2023-04-29T09:30:10.947Z,83.46
2023-04-29T09:32:39.179Z,82.29
2023-04-29T09:35:25.254Z,82.58
2023-04-29T09:37:52.306Z,79.87
2023-04-29T09:40:43.355Z,79.76
2023-04-29T09:43:15.728Z,79.84
2023-04-29T09:45:44.934Z,79.77
2023-04-29T09:48:12.601Z,80.33
2023-04-29T09:50:40.171Z,78.84
2023-04-29T09:53:08.461Z,78.70
2023-04-29T09:55:36.031Z,79.88
2023-04-29T09:58:02.693Z,80.12
2023-04-29T10:00:34.057Z,80.72
2023-04-29T10:03:02.312Z,80.17
2023-04-29T10:05:29.466Z,79.91
2023-04-29T10:07:57.784Z,78.50
2023-04-29T10:10:24.743Z,77.12
2023-04-29T10:12:53.926Z,78.23
2023-04-29T10:15:29.436Z,77.19
2023-04-29T10:18:00.919Z,77.80
2023-04-29T10:20:28.282Z,78.12
2023-04-29T10:22:55.569Z,78.91
2023-04-29T10:25:25.022Z,80.36
2023-04-29T10:27:51.790Z,80.52
2023-04-29T10:30:19.299Z,78.56
2023-04-29T10:32:51.519Z,77.40
2023-04-29T10:35:20.479Z,77.16
2023-04-29T10:37:48.242Z,77.76
2023-04-29T10:40:19.223Z,78.41
2023-04-29T10:42:48.176Z,79.35
2023-04-29T10:45:20.677Z,80.01
2023-04-29T10:48:02.211Z,80.42
2023-04-29T10:50:29.694Z,80.72
2023-04-29T10:52:56.176Z,80.28
2023-04-29T10:55:25.308Z,80.18
2023-04-29T10:57:55.461Z,79.51
2023-04-29T11:00:29.492Z,80.33
2023-04-29T11:03:00.284Z,80.67
2023-04-29T11:05:34.791Z,80.51
2023-04-29T11:08:21.206Z,80.89
2023-04-29T11:10:47.566Z,81.19
2023-04-29T11:13:28.749Z,80.38
2023-04-29T11:16:09.934Z,79.67
2023-04-29T11:18:57.282Z,79.42
2023-04-29T11:21:23.615Z,80.08
2023-04-29T11:23:51.907Z,81.68
2023-04-29T11:26:21.650Z,81.79
2023-04-29T11:28:48.345Z,81.92
2023-04-29T11:31:14.848Z,82.12
2023-04-29T11:33:41.293Z,82.53
2023-04-29T11:36:08.107Z,82.32
2023-04-29T11:38:35.154Z,82.04
2023-04-29T11:41:01.539Z,82.74
2023-04-29T11:43:28.003Z,82.86
2023-04-29T11:45:54.626Z,83.21
2023-04-29T11:48:23.468Z,82.87
2023-04-29T11:50:57.105Z,82.64
2023-04-29T11:53:26.454Z,82.02
2023-04-29T11:55:53.773Z,82.64
2023-04-29T11:58:24.835Z,82.91
2023-04-29T12:00:51.535Z,82.12
2023-04-29T12:03:20.183Z,82.28
2023-04-29T12:05:55.043Z,82.02
2023-04-29T12:08:25.977Z,81.72
2023-04-29T12:10:54.602Z,82.00
2023-04-29T12:13:23.916Z,81.75
2023-04-29T12:15:52.469Z,81.72
2023-04-29T12:18:19.798Z,81.16
2023-04-29T12:20:46.629Z,80.33
2023-04-29T12:23:20.238Z,81.36
2023-04-29T12:25:54.959Z,80.08
2023-04-29T12:28:21.922Z,79.13
2023-04-29T12:30:49.716Z,78.92
2023-04-29T12:33:19.596Z,78.13
2023-04-29T12:35:45.912Z,77.59
2023-04-29T12:38:16.440Z,77.90
2023-04-29T12:40:44.477Z,78.28
2023-04-29T12:43:11.006Z,77.37
2023-04-29T12:45:38.893Z,77.06
2023-04-29T12:48:08.951Z,77.76
2023-04-29T12:50:39.723Z,77.70
2023-04-29T12:53:07.462Z,77.53
2023-04-29T12:55:35.647Z,77.15
2023-04-29T12:58:06.466Z,75.95
2023-04-29T13:00:36.099Z,75.85
2023-04-29T13:03:02.740Z,74.71
2023-04-29T13:05:29.202Z,74.37
2023-04-29T13:07:55.939Z,73.79
2023-04-29T13:10:22.440Z,73.95
2023-04-29T13:12:49.298Z,73.58
2023-04-29T13:15:15.737Z,73.07
2023-04-29T13:17:42.250Z,72.01
2023-04-29T13:20:10.924Z,70.51
2023-04-29T13:22:37.899Z,70.08
2023-04-29T13:25:04.878Z,71.13
2023-04-29T13:27:31.925Z,71.98
2023-04-29T13:29:58.426Z,71.04
2023-04-29T13:32:25.092Z,71.64
2023-04-29T13:34:51.711Z,71.77
2023-04-29T13:37:18.668Z,70.81
2023-04-29T13:39:47.307Z,72.05
2023-04-29T13:42:15.522Z,71.73
2023-04-29T13:47:13.463Z,70.83
2023-04-29T13:50:16.946Z,71.43
2023-04-29T13:55:49.337Z,73.80
2023-04-29T14:00:38.042Z,73.88
2023-04-29T14:03:02.361Z,73.03
2023-04-29T14:05:28.883Z,73.67
2023-04-29T14:07:55.400Z,73.26
2023-04-29T14:10:21.915Z,72.41
2023-04-29T14:12:48.342Z,72.09
2023-04-29T14:15:14.711Z,72.76
2023-04-29T14:17:41.245Z,72.42
2023-04-29T14:20:08.247Z,71.39
2023-04-29T14:22:34.736Z,71.67
2023-04-29T14:25:01.285Z,71.15
2023-04-29T14:27:27.699Z,69.69
2023-04-29T14:29:54.156Z,70.04
2023-04-29T14:32:20.957Z,70.82
2023-04-29T14:34:47.462Z,71.49
2023-04-29T14:37:13.809Z,69.33
2023-04-29T14:39:40.202Z,69.17
2023-04-29T14:42:06.611Z,70.43
2023-04-29T14:44:33.002Z,70.63
2023-04-29T14:46:59.387Z,68.11
2023-04-29T14:49:26.231Z,69.75
2023-04-29T14:51:52.572Z,69.96
2023-04-29T14:54:19.207Z,69.82
2023-04-29T14:56:45.529Z,69.93
2023-04-29T14:59:12.505Z,69.68
2023-04-29T15:01:39.237Z,68.98
2023-04-29T15:04:05.828Z,70.41
2023-04-29T15:06:32.406Z,69.46
2023-04-29T15:08:58.940Z,70.39
2023-04-29T15:11:25.384Z,70.96
2023-04-29T15:13:52.015Z,70.66
2023-04-29T15:16:18.549Z,69.96
2023-04-29T15:18:45.851Z,70.13
2023-04-29T15:21:12.404Z,70.47
2023-04-29T15:23:38.734Z,70.98
2023-04-29T15:26:05.218Z,72.68
2023-04-29T15:28:31.623Z,73.18
2023-04-29T15:30:57.998Z,72.96
2023-04-29T15:33:24.502Z,73.26
2023-04-29T15:35:50.890Z,74.37
2023-04-29T15:38:17.204Z,73.88
2023-04-29T15:40:43.540Z,74.33
2023-04-29T15:43:09.964Z,75.63
2023-04-29T15:45:36.291Z,75.42
2023-04-29T15:48:02.914Z,73.96
2023-04-29T15:50:29.339Z,73.32
2023-04-29T15:52:55.809Z,73.21
2023-04-29T15:55:22.210Z,74.53
2023-04-29T15:57:48.537Z,74.86
2023-04-29T16:00:15.002Z,75.42
2023-04-29T16:02:41.467Z,75.62
2023-04-29T16:05:08.238Z,75.54
2023-04-29T16:07:35.526Z,75.95
2023-04-29T16:10:03.205Z,75.42
2023-04-29T16:12:29.592Z,76.17
2023-04-29T16:14:55.900Z,75.66
2023-04-29T16:17:22.261Z,74.69
2023-04-29T16:19:48.701Z,75.06
2023-04-29T16:22:15.290Z,75.33
2023-04-29T16:24:41.615Z,75.63
2023-04-29T16:27:08.163Z,75.27
2023-04-29T16:29:34.506Z,74.92
2023-04-29T16:32:00.851Z,74.34
2023-04-29T16:34:27.200Z,74.68
2023-04-29T16:36:53.541Z,74.37
2023-04-29T16:39:19.868Z,74.49
2023-04-29T16:41:46.187Z,74.69
2023-04-29T16:44:12.494Z,73.85
2023-04-29T16:46:39.086Z,73.04
2023-04-29T16:49:05.740Z,73.56
2023-04-29T16:51:32.069Z,74.27
2023-04-29T16:53:58.406Z,73.43
2023-04-29T16:56:24.741Z,73.72
2023-04-29T16:58:51.234Z,74.12
2023-04-29T17:01:17.882Z,73.35
2023-04-29T17:03:44.299Z,74.05
2023-04-29T17:06:11.072Z,74.51
2023-04-29T17:08:37.571Z,74.03
2023-04-29T17:11:05.217Z,74.19
2023-04-29T17:13:32.679Z,74.49
2023-04-29T17:15:59.167Z,74.97
2023-04-29T17:18:26.017Z,74.73
2023-04-29T17:20:52.508Z,75.45
2023-04-29T17:23:18.889Z,74.94
2023-04-29T17:25:46.437Z,74.53
2023-04-29T17:28:12.743Z,75.08
2023-04-29T17:30:39.170Z,75.10
2023-04-29T17:33:05.959Z,75.33
2023-04-29T17:35:33.183Z,74.76
2023-04-29T17:37:59.610Z,74.19
2023-04-29T17:40:26.068Z,74.50
2023-04-29T17:42:53.004Z,74.93
2023-04-29T17:45:19.378Z,75.44
2023-04-29T17:47:45.818Z,75.38
2023-04-29T17:50:12.249Z,76.25
2023-04-29T17:52:38.594Z,75.97
2023-04-29T17:55:05.609Z,75.63
2023-04-29T17:57:31.908Z,75.97
2023-04-29T17:59:58.223Z,76.22
2023-04-29T18:02:24.613Z,76.29
2023-04-29T18:04:50.951Z,76.55
2023-04-29T18:07:17.301Z,77.39
2023-04-29T18:09:43.661Z,77.57
2023-04-29T18:12:10.036Z,77.55
2023-04-29T18:14:36.594Z,77.73
2023-04-29T18:17:02.977Z,77.55
2023-04-29T18:19:29.337Z,77.92
2023-04-29T18:21:55.988Z,77.98
2023-04-29T18:24:22.300Z,77.98
2023-04-29T18:26:48.720Z,78.33
2023-04-29T18:29:15.047Z,77.83
2023-04-29T18:31:41.483Z,77.79
2023-04-29T18:34:08.175Z,78.54
2023-04-29T18:36:34.660Z,78.15
2023-04-29T18:39:01.013Z,78.75
2023-04-29T18:41:27.329Z,79.40
2023-04-29T18:43:53.680Z,79.29
2023-04-29T18:46:19.999Z,79.20
2023-04-29T18:48:46.359Z,79.63
2023-04-29T18:51:12.669Z,79.07
2023-04-29T18:53:39.112Z,79.24
2023-04-29T18:56:05.687Z,79.04
2023-04-29T18:58:32.024Z,79.74
2023-04-29T19:00:58.354Z,79.36
2023-04-29T19:03:25.003Z,79.42
2023-04-29T19:05:51.357Z,80.19
2023-04-29T19:08:17.777Z,80.07
2023-04-29T19:10:44.700Z,80.44
2023-04-29T19:13:11.155Z,79.86
2023-04-29T19:15:37.682Z,80.04
2023-04-29T19:18:04.226Z,80.16
2023-04-29T19:20:30.706Z,79.96
2023-04-29T19:22:57.140Z,79.83
2023-04-29T19:25:23.512Z,80.00
2023-04-29T19:27:49.864Z,79.60
2023-04-29T19:30:16.370Z,79.86
2023-04-29T19:32:42.754Z,79.63
2023-04-29T19:35:09.408Z,80.15
2023-04-29T19:37:35.774Z,80.67
2023-04-29T19:40:03.406Z,80.79
2023-04-29T19:42:29.803Z,80.39
2023-04-29T19:44:56.432Z,81.35
2023-04-29T19:47:24.720Z,81.17
2023-04-29T19:49:51.292Z,81.90
2023-04-29T19:52:17.729Z,82.25
2023-04-29T19:54:44.036Z,82.01
2023-04-29T19:57:10.360Z,82.17
2023-04-29T19:59:36.786Z,82.32
2023-04-29T20:02:03.511Z,83.45
2023-04-29T20:04:29.894Z,83.88
2023-04-29T20:06:56.261Z,83.63
2023-04-29T20:09:22.811Z,83.91
2023-04-29T20:11:49.146Z,83.99
2023-04-29T20:14:15.468Z,83.87
2023-04-29T20:16:41.842Z,84.27
2023-04-29T20:19:08.247Z,83.73
2023-04-29T20:21:34.554Z,83.91
2023-04-29T20:24:00.960Z,83.61
2023-04-29T20:26:27.564Z,84.48
2023-04-29T20:28:53.971Z,83.95
2023-04-29T20:31:20.297Z,84.41
2023-04-29T20:33:46.773Z,84.59
2023-04-29T20:36:13.078Z,86.03
2023-04-29T20:38:39.461Z,84.76
2023-04-29T20:41:05.796Z,84.56
2023-04-29T20:43:32.230Z,83.82
2023-04-29T20:45:58.811Z,84.05
2023-04-29T20:48:25.174Z,84.18
2023-04-29T20:50:51.473Z,84.59
2023-04-29T20:53:17.842Z,84.40
2023-04-29T20:55:44.273Z,84.50
2023-04-29T20:58:10.604Z,84.74
2023-04-29T21:00:36.970Z,85.27
2023-04-29T21:03:03.350Z,85.60
2023-04-29T21:05:29.702Z,85.66
2023-04-29T21:07:56.156Z,85.32
2023-04-29T21:10:22.528Z,85.70
2023-04-29T21:12:48.917Z,86.38
2023-04-29T21:15:15.329Z,86.01
2023-04-29T21:17:42.037Z,86.30
2023-04-29T21:20:08.862Z,86.98
2023-04-29T21:22:35.284Z,87.66
2023-04-29T21:25:01.678Z,88.00
2023-04-29T21:27:28.130Z,87.74
2023-04-29T21:29:54.707Z,87.54
2023-04-29T21:32:21.429Z,87.70
2023-04-29T21:34:48.657Z,88.14
2023-04-29T21:37:14.963Z,88.23
2023-04-29T21:39:41.391Z,89.34
2023-04-29T21:42:08.779Z,89.61
2023-04-29T21:44:35.858Z,89.53
2023-04-29T21:47:02.293Z,89.82
2023-04-29T21:49:28.916Z,89.64
2023-04-29T21:51:55.504Z,89.67
2023-04-29T21:54:21.993Z,90.40
2023-04-29T21:56:48.392Z,90.79
2023-04-29T21:59:14.786Z,91.13
2023-04-29T22:01:41.512Z,91.29
2023-04-29T22:04:07.870Z,91.53
2023-04-29T22:06:34.720Z,92.01
2023-04-29T22:09:01.444Z,91.92
2023-04-29T22:11:27.812Z,92.06
2023-04-29T22:13:54.166Z,92.53
2023-04-29T22:16:20.703Z,93.00
2023-04-29T22:18:47.042Z,93.07
2023-04-29T22:21:13.483Z,92.69
2023-04-29T22:23:39.843Z,92.47
2023-04-29T22:26:06.327Z,92.43
2023-04-29T22:28:32.634Z,93.09
2023-04-29T22:30:59.029Z,93.65
2023-04-29T22:33:25.374Z,93.26
2023-04-29T22:35:51.851Z,93.00
2023-04-29T22:38:18.180Z,93.15
2023-04-29T22:40:53.977Z,93.43
2023-04-29T22:43:20.482Z,93.35
2023-04-29T22:45:53.644Z,93.95
2023-04-29T22:48:20.972Z,94.36
2023-04-29T22:50:55.103Z,93.75
2023-04-29T22:53:22.470Z,94.82
2023-04-29T22:55:52.937Z,95.29
2023-04-29T22:58:20.491Z,94.96
2023-04-29T23:00:50.053Z,94.96
2023-04-29T23:03:16.364Z,94.66
2023-04-29T23:05:42.762Z,95.23
2023-04-29T23:08:09.067Z,95.30
2023-04-29T23:10:35.529Z,95.22
2023-04-29T23:13:01.905Z,94.81
2023-04-29T23:15:29.026Z,94.57
2023-04-29T23:17:56.444Z,94.38
2023-04-29T23:20:23.744Z,94.53
2023-04-29T23:22:50.522Z,95.06
2023-04-29T23:25:17.033Z,94.36
2023-04-29T23:27:43.490Z,94.41
2023-04-29T23:30:09.956Z,94.66
2023-04-29T23:32:36.445Z,94.37
2023-04-29T23:35:02.836Z,94.75
2023-04-29T23:37:29.241Z,94.92
2023-04-29T23:39:56.879Z,95.67
2023-04-29T23:42:23.927Z,95.72
2023-04-29T23:44:50.244Z,95.67
2023-04-29T23:47:16.669Z,95.71
2023-04-29T23:49:42.968Z,95.67
2023-04-29T23:52:09.489Z,94.88
2023-04-29T23:54:36.171Z,94.98
2023-04-29T23:57:02.529Z,94.95
2023-04-29T23:59:28.959Z,94.80
